sensor_id;sensor_type;location;lat;lon;timestamp;P1;durP1;ratioP1;P2;durP2;ratioP2
53927;SDS011;39837;47.630;18.822;2022-08-18T00:00:20;2.97;;;2.78;;
53927;SDS011;39837;47.630;18.822;2022-08-18T00:03:05;2.92;;;2.72;;
53927;SDS011;39837;47.630;18.822;2022-08-18T00:05:51;3.20;;;3.00;;
53927;SDS011;39837;47.630;18.822;2022-08-18T00:08:35;2.55;;;2.40;;
53927;SDS011;39837;47.630;18.822;2022-08-18T00:11:18;3.10;;;2.90;;
53927;SDS011;39837;47.630;18.822;2022-08-18T00:14:02;2.95;;;2.25;;
53927;SDS011;39837;47.630;18.822;2022-08-18T00:16:47;2.90;;;2.70;;
53927;SDS011;39837;47.630;18.822;2022-08-18T00:19:31;2.95;;;2.45;;
53927;SDS011;39837;47.630;18.822;2022-08-18T00:22:16;2.47;;;2.28;;
53927;SDS011;39837;47.630;18.822;2022-08-18T00:25:02;2.67;;;2.50;;
53927;SDS011;39837;47.630;18.822;2022-08-18T00:27:46;2.90;;;2.60;;
53927;SDS011;39837;47.630;18.822;2022-08-18T00:30:31;3.20;;;3.00;;
53927;SDS011;39837;47.630;18.822;2022-08-18T00:33:16;2.90;;;2.63;;
53927;SDS011;39837;47.630;18.822;2022-08-18T00:36:00;2.80;;;2.60;;
53927;SDS011;39837;47.630;18.822;2022-08-18T00:38:43;4.15;;;2.75;;
53927;SDS011;39837;47.630;18.822;2022-08-18T00:41:27;2.75;;;2.50;;
53927;SDS011;39837;47.630;18.822;2022-08-18T00:44:12;2.97;;;2.63;;
53927;SDS011;39837;47.630;18.822;2022-08-18T00:46:59;3.15;;;2.90;;
53927;SDS011;39837;47.630;18.822;2022-08-18T00:49:43;2.92;;;2.75;;
53927;SDS011;39837;47.630;18.822;2022-08-18T00:52:28;3.78;;;2.90;;
53927;SDS011;39837;47.630;18.822;2022-08-18T00:55:12;3.28;;;3.08;;
53927;SDS011;39837;47.630;18.822;2022-08-18T00:57:59;4.93;;;3.25;;
53927;SDS011;39837;47.630;18.822;2022-08-18T01:00:47;3.33;;;3.03;;
53927;SDS011;39837;47.630;18.822;2022-08-18T01:03:33;5.15;;;3.70;;
53927;SDS011;39837;47.630;18.822;2022-08-18T01:09:24;3.88;;;3.58;;
53927;SDS011;39837;47.630;18.822;2022-08-18T01:12:09;3.50;;;3.20;;
53927;SDS011;39837;47.630;18.822;2022-08-18T01:14:53;5.50;;;3.22;;
53927;SDS011;39837;47.630;18.822;2022-08-18T01:17:37;3.90;;;3.50;;
53927;SDS011;39837;47.630;18.822;2022-08-18T01:20:51;9.45;;;3.28;;
53927;SDS011;39837;47.630;18.822;2022-08-18T01:24:14;7.10;;;3.55;;
53927;SDS011;39837;47.630;18.822;2022-08-18T01:26:58;3.30;;;3.08;;
53927;SDS011;39837;47.630;18.822;2022-08-18T01:29:43;4.50;;;3.40;;
53927;SDS011;39837;47.630;18.822;2022-08-18T01:32:28;5.60;;;3.63;;
53927;SDS011;39837;47.630;18.822;2022-08-18T01:35:13;3.63;;;3.05;;
53927;SDS011;39837;47.630;18.822;2022-08-18T01:37:58;3.50;;;3.20;;
53927;SDS011;39837;47.630;18.822;2022-08-18T01:40:42;3.60;;;3.25;;
53927;SDS011;39837;47.630;18.822;2022-08-18T01:43:26;4.15;;;2.97;;
53927;SDS011;39837;47.630;18.822;2022-08-18T01:46:10;3.97;;;3.30;;
53927;SDS011;39837;47.630;18.822;2022-08-18T01:48:54;9.38;;;3.22;;
53927;SDS011;39837;47.630;18.822;2022-08-18T01:51:38;3.25;;;3.00;;
53927;SDS011;39837;47.630;18.822;2022-08-18T01:54:25;4.43;;;3.35;;
53927;SDS011;39837;47.630;18.822;2022-08-18T01:57:13;6.20;;;4.15;;
53927;SDS011;39837;47.630;18.822;2022-08-18T01:59:59;7.90;;;4.00;;
53927;SDS011;39837;47.630;18.822;2022-08-18T02:02:43;4.43;;;3.55;;
53927;SDS011;39837;47.630;18.822;2022-08-18T02:05:48;3.75;;;3.33;;
53927;SDS011;39837;47.630;18.822;2022-08-18T02:08:32;4.20;;;3.80;;
53927;SDS011;39837;47.630;18.822;2022-08-18T02:11:16;4.18;;;3.67;;
53927;SDS011;39837;47.630;18.822;2022-08-18T02:14:00;5.97;;;3.38;;
53927;SDS011;39837;47.630;18.822;2022-08-18T02:16:44;4.95;;;3.75;;
53927;SDS011;39837;47.630;18.822;2022-08-18T02:19:35;4.22;;;3.75;;
53927;SDS011;39837;47.630;18.822;2022-08-18T02:22:22;5.32;;;4.43;;
53927;SDS011;39837;47.630;18.822;2022-08-18T02:25:06;4.63;;;4.07;;
53927;SDS011;39837;47.630;18.822;2022-08-18T02:27:51;4.13;;;3.72;;
53927;SDS011;39837;47.630;18.822;2022-08-18T02:30:35;4.22;;;3.83;;
53927;SDS011;39837;47.630;18.822;2022-08-18T02:33:22;4.85;;;4.32;;
53927;SDS011;39837;47.630;18.822;2022-08-18T02:36:06;6.03;;;4.32;;
53927;SDS011;39837;47.630;18.822;2022-08-18T02:38:52;4.45;;;4.07;;
53927;SDS011;39837;47.630;18.822;2022-08-18T02:41:36;5.82;;;4.35;;
53927;SDS011;39837;47.630;18.822;2022-08-18T02:44:20;6.47;;;3.92;;
53927;SDS011;39837;47.630;18.822;2022-08-18T02:47:05;7.90;;;4.22;;
53927;SDS011;39837;47.630;18.822;2022-08-18T02:49:49;4.35;;;3.95;;
53927;SDS011;39837;47.630;18.822;2022-08-18T02:52:34;3.72;;;3.42;;
53927;SDS011;39837;47.630;18.822;2022-08-18T02:55:18;3.70;;;3.42;;
53927;SDS011;39837;47.630;18.822;2022-08-18T02:58:02;5.07;;;4.10;;
53927;SDS011;39837;47.630;18.822;2022-08-18T03:00:46;5.18;;;4.25;;
53927;SDS011;39837;47.630;18.822;2022-08-18T03:03:31;5.75;;;4.20;;
53927;SDS011;39837;47.630;18.822;2022-08-18T03:06:15;4.88;;;4.22;;
53927;SDS011;39837;47.630;18.822;2022-08-18T03:08:59;8.27;;;4.28;;
53927;SDS011;39837;47.630;18.822;2022-08-18T03:11:44;8.25;;;4.07;;
53927;SDS011;39837;47.630;18.822;2022-08-18T03:14:28;5.55;;;4.15;;
53927;SDS011;39837;47.630;18.822;2022-08-18T03:17:12;6.97;;;5.18;;
53927;SDS011;39837;47.630;18.822;2022-08-18T03:19:57;5.43;;;4.43;;
53927;SDS011;39837;47.630;18.822;2022-08-18T03:22:41;6.88;;;4.88;;
53927;SDS011;39837;47.630;18.822;2022-08-18T03:25:25;4.25;;;3.88;;
53927;SDS011;39837;47.630;18.822;2022-08-18T03:28:09;8.35;;;5.13;;
53927;SDS011;39837;47.630;18.822;2022-08-18T03:30:54;8.98;;;4.97;;
53927;SDS011;39837;47.630;18.822;2022-08-18T03:33:38;10.20;;;4.00;;
53927;SDS011;39837;47.630;18.822;2022-08-18T03:36:25;10.23;;;4.25;;
53927;SDS011;39837;47.630;18.822;2022-08-18T03:39:14;7.53;;;4.60;;
53927;SDS011;39837;47.630;18.822;2022-08-18T03:41:58;10.02;;;4.88;;
53927;SDS011;39837;47.630;18.822;2022-08-18T03:44:42;6.25;;;5.30;;
53927;SDS011;39837;47.630;18.822;2022-08-18T03:47:26;7.20;;;4.63;;
53927;SDS011;39837;47.630;18.822;2022-08-18T03:50:10;14.95;;;4.97;;
53927;SDS011;39837;47.630;18.822;2022-08-18T03:52:55;15.07;;;5.27;;
53927;SDS011;39837;47.630;18.822;2022-08-18T03:55:42;12.48;;;5.63;;
53927;SDS011;39837;47.630;18.822;2022-08-18T03:58:26;6.43;;;4.40;;
53927;SDS011;39837;47.630;18.822;2022-08-18T04:01:11;4.82;;;4.32;;
53927;SDS011;39837;47.630;18.822;2022-08-18T04:04:00;5.10;;;4.57;;
53927;SDS011;39837;47.630;18.822;2022-08-18T04:06:48;4.90;;;4.45;;
53927;SDS011;39837;47.630;18.822;2022-08-18T04:09:34;5.50;;;4.90;;
53927;SDS011;39837;47.630;18.822;2022-08-18T04:12:19;7.40;;;5.15;;
53927;SDS011;39837;47.630;18.822;2022-08-18T04:15:05;7.15;;;4.95;;
53927;SDS011;39837;47.630;18.822;2022-08-18T04:17:49;9.77;;;5.82;;
53927;SDS011;39837;47.630;18.822;2022-08-18T04:20:33;6.70;;;4.47;;
53927;SDS011;39837;47.630;18.822;2022-08-18T04:23:17;7.68;;;4.72;;
53927;SDS011;39837;47.630;18.822;2022-08-18T04:26:02;18.60;;;4.82;;
53927;SDS011;39837;47.630;18.822;2022-08-18T04:28:47;11.40;;;5.38;;
53927;SDS011;39837;47.630;18.822;2022-08-18T04:31:31;13.30;;;4.53;;
53927;SDS011;39837;47.630;18.822;2022-08-18T04:34:15;13.93;;;5.38;;
53927;SDS011;39837;47.630;18.822;2022-08-18T04:36:59;14.70;;;4.60;;
53927;SDS011;39837;47.630;18.822;2022-08-18T04:39:44;7.47;;;4.80;;
53927;SDS011;39837;47.630;18.822;2022-08-18T04:42:28;4.50;;;4.10;;
53927;SDS011;39837;47.630;18.822;2022-08-18T04:45:12;8.77;;;4.35;;
53927;SDS011;39837;47.630;18.822;2022-08-18T04:47:56;4.75;;;4.28;;
53927;SDS011;39837;47.630;18.822;2022-08-18T04:50:40;10.52;;;4.38;;
53927;SDS011;39837;47.630;18.822;2022-08-18T04:53:25;5.72;;;4.95;;
53927;SDS011;39837;47.630;18.822;2022-08-18T04:56:29;7.95;;;4.82;;
53927;SDS011;39837;47.630;18.822;2022-08-18T04:59:16;6.88;;;4.78;;
53927;SDS011;39837;47.630;18.822;2022-08-18T05:02:01;6.03;;;4.13;;
53927;SDS011;39837;47.630;18.822;2022-08-18T05:04:50;6.40;;;4.70;;
53927;SDS011;39837;47.630;18.822;2022-08-18T05:07:34;5.78;;;4.88;;
53927;SDS011;39837;47.630;18.822;2022-08-18T05:10:18;11.93;;;5.18;;
53927;SDS011;39837;47.630;18.822;2022-08-18T05:13:02;9.32;;;4.57;;
53927;SDS011;39837;47.630;18.822;2022-08-18T05:15:51;7.13;;;4.10;;
53927;SDS011;39837;47.630;18.822;2022-08-18T05:18:39;5.70;;;4.38;;
53927;SDS011;39837;47.630;18.822;2022-08-18T05:21:23;12.23;;;5.47;;
53927;SDS011;39837;47.630;18.822;2022-08-18T05:24:08;5.60;;;5.03;;
53927;SDS011;39837;47.630;18.822;2022-08-18T05:26:53;7.00;;;4.75;;
53927;SDS011;39837;47.630;18.822;2022-08-18T05:29:37;14.32;;;4.68;;
53927;SDS011;39837;47.630;18.822;2022-08-18T05:32:21;7.72;;;4.28;;
53927;SDS011;39837;47.630;18.822;2022-08-18T05:35:06;9.55;;;4.28;;
53927;SDS011;39837;47.630;18.822;2022-08-18T05:44:45;14.80;;;4.75;;
53927;SDS011;39837;47.630;18.822;2022-08-18T05:47:31;16.80;;;4.78;;
53927;SDS011;39837;47.630;18.822;2022-08-18T05:50:16;6.55;;;4.55;;
53927;SDS011;39837;47.630;18.822;2022-08-18T05:53:08;4.95;;;4.45;;
53927;SDS011;39837;47.630;18.822;2022-08-18T05:56:00;5.82;;;4.55;;
53927;SDS011;39837;47.630;18.822;2022-08-18T05:59:04;16.40;;;4.93;;
53927;SDS011;39837;47.630;18.822;2022-08-18T06:01:50;4.78;;;4.38;;
53927;SDS011;39837;47.630;18.822;2022-08-18T06:04:40;7.85;;;4.30;;
53927;SDS011;39837;47.630;18.822;2022-08-18T06:13:01;5.75;;;4.47;;
53927;SDS011;39837;47.630;18.822;2022-08-18T06:16:08;4.38;;;3.75;;
53927;SDS011;39837;47.630;18.822;2022-08-18T06:27:40;4.97;;;4.22;;
53927;SDS011;39837;47.630;18.822;2022-08-18T06:36:38;4.88;;;4.28;;
53927;SDS011;39837;47.630;18.822;2022-08-18T06:42:25;9.77;;;3.85;;
53927;SDS011;39837;47.630;18.822;2022-08-18T06:45:13;12.80;;;3.70;;
53927;SDS011;39837;47.630;18.822;2022-08-18T06:51:18;7.03;;;3.72;;
53927;SDS011;39837;47.630;18.822;2022-08-18T06:54:05;5.85;;;3.92;;
53927;SDS011;39837;47.630;18.822;2022-08-18T06:56:52;3.72;;;3.42;;
53927;SDS011;39837;47.630;18.822;2022-08-18T06:59:37;5.82;;;3.33;;
53927;SDS011;39837;47.630;18.822;2022-08-18T07:02:24;10.43;;;3.45;;
53927;SDS011;39837;47.630;18.822;2022-08-18T07:05:15;9.57;;;3.72;;
53927;SDS011;39837;47.630;18.822;2022-08-18T07:08:13;5.35;;;3.38;;
53927;SDS011;39837;47.630;18.822;2022-08-18T07:11:20;6.90;;;3.17;;
53927;SDS011;39837;47.630;18.822;2022-08-18T07:14:12;7.97;;;3.20;;
53927;SDS011;39837;47.630;18.822;2022-08-18T07:17:08;3.92;;;3.53;;
53927;SDS011;39837;47.630;18.822;2022-08-18T07:20:04;4.20;;;3.03;;
53927;SDS011;39837;47.630;18.822;2022-08-18T07:23:04;3.42;;;3.00;;
53927;SDS011;39837;47.630;18.822;2022-08-18T07:25:49;14.10;;;3.42;;
53927;SDS011;39837;47.630;18.822;2022-08-18T07:31:36;7.40;;;2.53;;
53927;SDS011;39837;47.630;18.822;2022-08-18T07:34:26;3.35;;;2.75;;
53927;SDS011;39837;47.630;18.822;2022-08-18T07:37:18;11.70;;;3.15;;
53927;SDS011;39837;47.630;18.822;2022-08-18T07:40:10;4.63;;;3.40;;
53927;SDS011;39837;47.630;18.822;2022-08-18T07:43:12;14.55;;;3.78;;
53927;SDS011;39837;47.630;18.822;2022-08-18T07:46:03;5.22;;;2.95;;
53927;SDS011;39837;47.630;18.822;2022-08-18T07:48:55;2.88;;;2.53;;
53927;SDS011;39837;47.630;18.822;2022-08-18T07:51:49;4.25;;;2.92;;
53927;SDS011;39837;47.630;18.822;2022-08-18T07:57:47;2.83;;;2.60;;
53927;SDS011;39837;47.630;18.822;2022-08-18T08:09:33;8.10;;;3.05;;
53927;SDS011;39837;47.630;18.822;2022-08-18T08:15:20;2.63;;;2.40;;
53927;SDS011;39837;47.630;18.822;2022-08-18T08:18:21;2.70;;;2.25;;
53927;SDS011;39837;47.630;18.822;2022-08-18T08:21:19;3.90;;;2.30;;
53927;SDS011;39837;47.630;18.822;2022-08-18T08:27:01;6.45;;;2.65;;
53927;SDS011;39837;47.630;18.822;2022-08-18T08:33:21;4.45;;;2.63;;
53927;SDS011;39837;47.630;18.822;2022-08-18T08:36:15;3.40;;;2.88;;
53927;SDS011;39837;47.630;18.822;2022-08-18T08:39:04;3.92;;;2.17;;
53927;SDS011;39837;47.630;18.822;2022-08-18T08:41:58;2.15;;;2.00;;
53927;SDS011;39837;47.630;18.822;2022-08-18T08:44:55;4.38;;;2.80;;
53927;SDS011;39837;47.630;18.822;2022-08-18T08:48:00;2.40;;;2.20;;
53927;SDS011;39837;47.630;18.822;2022-08-18T08:50:50;10.35;;;2.42;;
53927;SDS011;39837;47.630;18.822;2022-08-18T08:53:40;4.10;;;1.90;;
53927;SDS011;39837;47.630;18.822;2022-08-18T08:56:33;11.20;;;2.03;;
53927;SDS011;39837;47.630;18.822;2022-08-18T08:59:20;5.15;;;2.22;;
53927;SDS011;39837;47.630;18.822;2022-08-18T09:05:25;9.85;;;2.85;;
53927;SDS011;39837;47.630;18.822;2022-08-18T09:21:00;2.50;;;2.25;;
53927;SDS011;39837;47.630;18.822;2022-08-18T09:23:50;1.90;;;1.80;;
53927;SDS011;39837;47.630;18.822;2022-08-18T09:26:41;7.40;;;2.10;;
53927;SDS011;39837;47.630;18.822;2022-08-18T09:35:28;3.88;;;2.17;;
53927;SDS011;39837;47.630;18.822;2022-08-18T09:38:19;4.50;;;1.85;;
53927;SDS011;39837;47.630;18.822;2022-08-18T09:41:25;2.20;;;1.85;;
53927;SDS011;39837;47.630;18.822;2022-08-18T09:44:55;4.88;;;1.75;;
53927;SDS011;39837;47.630;18.822;2022-08-18T09:53:13;1.98;;;1.63;;
53927;SDS011;39837;47.630;18.822;2022-08-18T09:56:54;1.92;;;1.55;;
53927;SDS011;39837;47.630;18.822;2022-08-18T10:11:44;4.05;;;2.47;;
53927;SDS011;39837;47.630;18.822;2022-08-18T10:14:35;3.00;;;1.70;;
53927;SDS011;39837;47.630;18.822;2022-08-18T10:34:57;2.90;;;2.20;;
53927;SDS011;39837;47.630;18.822;2022-08-18T10:37:42;2.00;;;1.90;;
53927;SDS011;39837;47.630;18.822;2022-08-18T10:40:29;3.60;;;2.80;;
53927;SDS011;39837;47.630;18.822;2022-08-18T10:43:18;2.25;;;2.15;;
53927;SDS011;39837;47.630;18.822;2022-08-18T10:46:24;6.07;;;2.28;;
53927;SDS011;39837;47.630;18.822;2022-08-18T11:04:43;12.88;;;2.25;;
53927;SDS011;39837;47.630;18.822;2022-08-18T11:07:30;2.53;;;2.33;;
53927;SDS011;39837;47.630;18.822;2022-08-18T11:10:16;5.57;;;2.42;;
53927;SDS011;39837;47.630;18.822;2022-08-18T11:19:08;4.20;;;2.25;;
53927;SDS011;39837;47.630;18.822;2022-08-18T11:21:54;2.30;;;2.15;;
53927;SDS011;39837;47.630;18.822;2022-08-18T11:24:42;1.97;;;1.87;;
53927;SDS011;39837;47.630;18.822;2022-08-18T11:27:28;3.17;;;2.85;;
53927;SDS011;39837;47.630;18.822;2022-08-18T11:30:13;5.40;;;2.15;;
53927;SDS011;39837;47.630;18.822;2022-08-18T11:32:57;3.47;;;2.53;;
53927;SDS011;39837;47.630;18.822;2022-08-18T11:35:47;3.33;;;2.05;;
53927;SDS011;39837;47.630;18.822;2022-08-18T11:38:33;3.60;;;1.90;;
53927;SDS011;39837;47.630;18.822;2022-08-18T11:41:18;3.10;;;2.15;;
53927;SDS011;39837;47.630;18.822;2022-08-18T11:44:05;1.50;;;1.50;;
53927;SDS011;39837;47.630;18.822;2022-08-18T11:47:11;2.17;;;1.88;;
53927;SDS011;39837;47.630;18.822;2022-08-18T11:50:04;4.72;;;2.55;;
53927;SDS011;39837;47.630;18.822;2022-08-18T11:52:55;2.42;;;2.17;;
53927;SDS011;39837;47.630;18.822;2022-08-18T11:58:58;2.13;;;1.85;;
53927;SDS011;39837;47.630;18.822;2022-08-18T12:01:53;2.85;;;2.17;;
53927;SDS011;39837;47.630;18.822;2022-08-18T12:04:38;4.35;;;2.38;;
53927;SDS011;39837;47.630;18.822;2022-08-18T12:07:26;1.67;;;1.48;;
53927;SDS011;39837;47.630;18.822;2022-08-18T12:10:18;1.80;;;1.70;;
53927;SDS011;39837;47.630;18.822;2022-08-18T12:13:05;2.17;;;1.92;;
53927;SDS011;39837;47.630;18.822;2022-08-18T12:16:06;7.35;;;1.90;;
53927;SDS011;39837;47.630;18.822;2022-08-18T12:18:59;7.68;;;2.00;;
53927;SDS011;39837;47.630;18.822;2022-08-18T12:21:44;1.70;;;1.60;;
53927;SDS011;39837;47.630;18.822;2022-08-18T12:24:32;3.53;;;2.30;;
53927;SDS011;39837;47.630;18.822;2022-08-18T12:27:17;6.70;;;1.90;;
53927;SDS011;39837;47.630;18.822;2022-08-18T12:30:04;4.45;;;2.10;;
53927;SDS011;39837;47.630;18.822;2022-08-18T12:32:50;5.97;;;2.20;;
53927;SDS011;39837;47.630;18.822;2022-08-18T12:35:33;3.93;;;2.10;;
53927;SDS011;39837;47.630;18.822;2022-08-18T12:38:17;2.00;;;1.90;;
53927;SDS011;39837;47.630;18.822;2022-08-18T12:41:02;1.70;;;1.70;;
53927;SDS011;39837;47.630;18.822;2022-08-18T12:43:47;2.35;;;1.85;;
53927;SDS011;39837;47.630;18.822;2022-08-18T12:46:32;4.68;;;2.00;;
53927;SDS011;39837;47.630;18.822;2022-08-18T12:49:20;3.33;;;2.10;;
53927;SDS011;39837;47.630;18.822;2022-08-18T12:52:06;11.57;;;2.53;;
53927;SDS011;39837;47.630;18.822;2022-08-18T12:54:50;2.28;;;1.83;;
53927;SDS011;39837;47.630;18.822;2022-08-18T12:57:35;3.08;;;1.88;;
53927;SDS011;39837;47.630;18.822;2022-08-18T13:00:18;2.63;;;1.90;;
53927;SDS011;39837;47.630;18.822;2022-08-18T13:03:03;3.10;;;2.00;;
53927;SDS011;39837;47.630;18.822;2022-08-18T13:05:47;4.20;;;2.10;;
53927;SDS011;39837;47.630;18.822;2022-08-18T13:08:31;1.97;;;1.87;;
53927;SDS011;39837;47.630;18.822;2022-08-18T13:11:18;5.13;;;2.10;;
53927;SDS011;39837;47.630;18.822;2022-08-18T13:14:03;2.08;;;1.83;;
53927;SDS011;39837;47.630;18.822;2022-08-18T13:16:47;1.88;;;1.75;;
53927;SDS011;39837;47.630;18.822;2022-08-18T13:19:31;4.30;;;2.05;;
53927;SDS011;39837;47.630;18.822;2022-08-18T13:22:15;3.70;;;2.03;;
53927;SDS011;39837;47.630;18.822;2022-08-18T13:25:01;16.60;;;2.08;;
53927;SDS011;39837;47.630;18.822;2022-08-18T13:27:46;1.77;;;1.67;;
53927;SDS011;39837;47.630;18.822;2022-08-18T13:30:30;3.30;;;2.20;;
53927;SDS011;39837;47.630;18.822;2022-08-18T13:33:15;2.35;;;1.73;;
53927;SDS011;39837;47.630;18.822;2022-08-18T13:36:00;2.10;;;1.70;;
53927;SDS011;39837;47.630;18.822;2022-08-18T13:38:44;2.33;;;2.10;;
53927;SDS011;39837;47.630;18.822;2022-08-18T13:41:28;2.20;;;1.73;;
53927;SDS011;39837;47.630;18.822;2022-08-18T13:44:14;1.77;;;1.63;;
53927;SDS011;39837;47.630;18.822;2022-08-18T13:47:01;2.22;;;1.30;;
53927;SDS011;39837;47.630;18.822;2022-08-18T13:49:45;6.22;;;1.70;;
53927;SDS011;39837;47.630;18.822;2022-08-18T13:52:29;1.55;;;1.45;;
53927;SDS011;39837;47.630;18.822;2022-08-18T13:55:14;1.87;;;1.77;;
53927;SDS011;39837;47.630;18.822;2022-08-18T13:58:00;1.45;;;1.35;;
53927;SDS011;39837;47.630;18.822;2022-08-18T14:00:45;1.77;;;1.65;;
53927;SDS011;39837;47.630;18.822;2022-08-18T14:03:29;14.55;;;2.63;;
53927;SDS011;39837;47.630;18.822;2022-08-18T14:06:15;2.03;;;1.90;;
53927;SDS011;39837;47.630;18.822;2022-08-18T14:09:03;2.70;;;2.13;;
53927;SDS011;39837;47.630;18.822;2022-08-18T14:11:47;7.15;;;1.70;;
53927;SDS011;39837;47.630;18.822;2022-08-18T14:14:32;2.65;;;1.60;;
53927;SDS011;39837;47.630;18.822;2022-08-18T14:17:16;5.93;;;1.60;;
53927;SDS011;39837;47.630;18.822;2022-08-18T14:20:01;6.95;;;1.92;;
53927;SDS011;39837;47.630;18.822;2022-08-18T14:23:04;1.70;;;1.58;;
53927;SDS011;39837;47.630;18.822;2022-08-18T14:26:09;5.63;;;1.67;;
53927;SDS011;39837;47.630;18.822;2022-08-18T14:29:12;2.05;;;1.67;;
53927;SDS011;39837;47.630;18.822;2022-08-18T14:31:56;2.08;;;1.85;;
53927;SDS011;39837;47.630;18.822;2022-08-18T14:34:40;2.95;;;1.40;;
53927;SDS011;39837;47.630;18.822;2022-08-18T14:37:25;7.15;;;1.52;;
53927;SDS011;39837;47.630;18.822;2022-08-18T14:42:54;3.30;;;1.33;;
53927;SDS011;39837;47.630;18.822;2022-08-18T14:45:38;2.67;;;1.63;;
53927;SDS011;39837;47.630;18.822;2022-08-18T14:48:22;2.63;;;1.52;;
53927;SDS011;39837;47.630;18.822;2022-08-18T14:51:09;1.50;;;1.40;;
53927;SDS011;39837;47.630;18.822;2022-08-18T14:53:53;1.23;;;1.07;;
53927;SDS011;39837;47.630;18.822;2022-08-18T14:56:37;1.48;;;1.40;;
53927;SDS011;39837;47.630;18.822;2022-08-18T14:59:21;1.73;;;1.60;;
53927;SDS011;39837;47.630;18.822;2022-08-18T15:02:08;4.10;;;1.75;;
53927;SDS011;39837;47.630;18.822;2022-08-18T15:04:53;6.75;;;1.73;;
53927;SDS011;39837;47.630;18.822;2022-08-18T15:07:37;1.45;;;1.15;;
53927;SDS011;39837;47.630;18.822;2022-08-18T15:10:22;1.65;;;1.38;;
53927;SDS011;39837;47.630;18.822;2022-08-18T15:13:06;2.65;;;1.40;;
53927;SDS011;39837;47.630;18.822;2022-08-18T15:15:52;1.67;;;1.35;;
53927;SDS011;39837;47.630;18.822;2022-08-18T15:18:36;1.30;;;1.30;;
53927;SDS011;39837;47.630;18.822;2022-08-18T15:21:20;11.43;;;1.73;;
53927;SDS011;39837;47.630;18.822;2022-08-18T15:24:22;4.25;;;1.70;;
53927;SDS011;39837;47.630;18.822;2022-08-18T15:27:29;1.67;;;1.38;;
53927;SDS011;39837;47.630;18.822;2022-08-18T15:30:17;1.77;;;1.65;;
53927;SDS011;39837;47.630;18.822;2022-08-18T15:33:03;1.85;;;1.75;;
53927;SDS011;39837;47.630;18.822;2022-08-18T15:35:47;10.00;;;2.13;;
53927;SDS011;39837;47.630;18.822;2022-08-18T15:38:32;9.68;;;1.98;;
53927;SDS011;39837;47.630;18.822;2022-08-18T15:44:32;3.83;;;1.67;;
53927;SDS011;39837;47.630;18.822;2022-08-18T15:47:16;5.18;;;1.60;;
53927;SDS011;39837;47.630;18.822;2022-08-18T15:50:00;2.15;;;1.60;;
53927;SDS011;39837;47.630;18.822;2022-08-18T15:52:45;3.17;;;1.47;;
53927;SDS011;39837;47.630;18.822;2022-08-18T15:55:34;8.20;;;1.35;;
53927;SDS011;39837;47.630;18.822;2022-08-18T15:58:18;2.67;;;1.73;;
53927;SDS011;39837;47.630;18.822;2022-08-18T16:01:07;1.67;;;1.50;;
53927;SDS011;39837;47.630;18.822;2022-08-18T16:03:52;1.50;;;1.30;;
53927;SDS011;39837;47.630;18.822;2022-08-18T16:06:37;1.42;;;1.33;;
53927;SDS011;39837;47.630;18.822;2022-08-18T16:09:23;2.78;;;1.30;;
53927;SDS011;39837;47.630;18.822;2022-08-18T16:12:08;1.70;;;1.60;;
53927;SDS011;39837;47.630;18.822;2022-08-18T16:14:52;1.70;;;1.13;;
53927;SDS011;39837;47.630;18.822;2022-08-18T16:17:36;14.33;;;1.67;;
53927;SDS011;39837;47.630;18.822;2022-08-18T16:20:21;7.07;;;1.90;;
53927;SDS011;39837;47.630;18.822;2022-08-18T16:23:09;3.00;;;1.48;;
53927;SDS011;39837;47.630;18.822;2022-08-18T16:26:00;1.17;;;1.17;;
53927;SDS011;39837;47.630;18.822;2022-08-18T16:28:48;1.80;;;1.65;;
53927;SDS011;39837;47.630;18.822;2022-08-18T16:31:35;1.55;;;1.42;;
53927;SDS011;39837;47.630;18.822;2022-08-18T16:34:18;1.63;;;1.52;;
53927;SDS011;39837;47.630;18.822;2022-08-18T16:37:02;4.25;;;1.50;;
53927;SDS011;39837;47.630;18.822;2022-08-18T16:39:46;13.45;;;1.63;;
53927;SDS011;39837;47.630;18.822;2022-08-18T16:42:30;1.55;;;1.27;;
53927;SDS011;39837;47.630;18.822;2022-08-18T16:45:15;3.10;;;1.52;;
53927;SDS011;39837;47.630;18.822;2022-08-18T16:47:59;1.48;;;1.38;;
53927;SDS011;39837;47.630;18.822;2022-08-18T16:50:44;5.32;;;1.70;;
53927;SDS011;39837;47.630;18.822;2022-08-18T16:53:28;1.73;;;1.63;;
53927;SDS011;39837;47.630;18.822;2022-08-18T16:56:13;2.20;;;1.33;;
53927;SDS011;39837;47.630;18.822;2022-08-18T16:58:59;1.95;;;1.67;;
53927;SDS011;39837;47.630;18.822;2022-08-18T17:02:02;1.77;;;1.60;;
53927;SDS011;39837;47.630;18.822;2022-08-18T17:05:05;9.98;;;1.80;;
53927;SDS011;39837;47.630;18.822;2022-08-18T17:07:49;6.85;;;2.40;;
53927;SDS011;39837;47.630;18.822;2022-08-18T17:10:33;3.33;;;1.58;;
53927;SDS011;39837;47.630;18.822;2022-08-18T17:13:20;10.73;;;2.03;;
53927;SDS011;39837;47.630;18.822;2022-08-18T17:16:05;1.85;;;1.75;;
53927;SDS011;39837;47.630;18.822;2022-08-18T17:18:50;3.42;;;1.48;;
53927;SDS011;39837;47.630;18.822;2022-08-18T17:21:35;1.73;;;1.52;;
53927;SDS011;39837;47.630;18.822;2022-08-18T17:24:19;2.87;;;1.77;;
53927;SDS011;39837;47.630;18.822;2022-08-18T17:32:46;3.85;;;2.00;;
53927;SDS011;39837;47.630;18.822;2022-08-18T17:35:41;2.47;;;1.80;;
53927;SDS011;39837;47.630;18.822;2022-08-18T17:41:23;1.85;;;1.23;;
53927;SDS011;39837;47.630;18.822;2022-08-18T17:44:08;2.80;;;1.67;;
53927;SDS011;39837;47.630;18.822;2022-08-18T17:46:52;5.25;;;2.13;;
53927;SDS011;39837;47.630;18.822;2022-08-18T17:49:42;2.75;;;1.75;;
53927;SDS011;39837;47.630;18.822;2022-08-18T17:52:46;3.75;;;1.75;;
53927;SDS011;39837;47.630;18.822;2022-08-18T17:55:44;1.92;;;1.70;;
53927;SDS011;39837;47.630;18.822;2022-08-18T17:58:38;3.63;;;1.88;;
53927;SDS011;39837;47.630;18.822;2022-08-18T18:01:25;1.60;;;1.50;;
53927;SDS011;39837;47.630;18.822;2022-08-18T18:04:09;9.50;;;1.67;;
53927;SDS011;39837;47.630;18.822;2022-08-18T18:06:53;1.98;;;1.65;;
53927;SDS011;39837;47.630;18.822;2022-08-18T18:09:37;1.75;;;1.65;;
53927;SDS011;39837;47.630;18.822;2022-08-18T18:12:23;5.18;;;2.15;;
53927;SDS011;39837;47.630;18.822;2022-08-18T18:15:09;4.00;;;2.05;;
53927;SDS011;39837;47.630;18.822;2022-08-18T18:17:55;3.80;;;2.28;;
53927;SDS011;39837;47.630;18.822;2022-08-18T18:20:39;2.83;;;2.20;;
53927;SDS011;39837;47.630;18.822;2022-08-18T18:23:27;10.13;;;2.00;;
53927;SDS011;39837;47.630;18.822;2022-08-18T18:32:04;3.33;;;2.00;;
53927;SDS011;39837;47.630;18.822;2022-08-18T18:35:12;6.60;;;2.42;;
53927;SDS011;39837;47.630;18.822;2022-08-18T18:38:44;3.67;;;1.90;;
53927;SDS011;39837;47.630;18.822;2022-08-18T18:44:06;3.15;;;1.95;;
53927;SDS011;39837;47.630;18.822;2022-08-18T18:46:55;5.68;;;2.60;;
53927;SDS011;39837;47.630;18.822;2022-08-18T18:50:03;5.00;;;1.77;;
53927;SDS011;39837;47.630;18.822;2022-08-18T18:56:28;16.27;;;2.17;;
53927;SDS011;39837;47.630;18.822;2022-08-18T18:59:20;3.22;;;1.98;;
53927;SDS011;39837;47.630;18.822;2022-08-18T19:14:22;2.83;;;1.80;;
53927;SDS011;39837;47.630;18.822;2022-08-18T19:25:55;7.88;;;1.60;;
53927;SDS011;39837;47.630;18.822;2022-08-18T19:28:45;3.65;;;2.45;;
53927;SDS011;39837;47.630;18.822;2022-08-18T19:31:35;6.25;;;2.15;;
53927;SDS011;39837;47.630;18.822;2022-08-18T19:34:24;7.00;;;2.67;;
53927;SDS011;39837;47.630;18.822;2022-08-18T19:37:23;3.40;;;2.65;;
53927;SDS011;39837;47.630;18.822;2022-08-18T19:40:55;3.60;;;1.92;;
53927;SDS011;39837;47.630;18.822;2022-08-18T19:43:55;2.50;;;2.30;;
53927;SDS011;39837;47.630;18.822;2022-08-18T19:46:42;2.00;;;1.77;;